aviador You're here:

LFML Decoded Metar

MARSEILLE in FRANCE
Report Time2017-08-24 03:00:00
UTC Time2017-08-24 03:07:45
Flight Rules vfr VFR
Wind120° at 04 kt
W.Decomp.*RWY 13: 3.9 kt HW 0.8 kt LCW
W.Rank120° ranks 8
Current wind is below 120° avg. (6.6)
Visibility9999 m
Phenomena:N/A
Clouds:N/A
Expected CloudBase > 1,600 ft AGL from Temp-Dew spread
CeilingNone
Temp20°C (ISA +5)
Dew Point16°C (78% RH)
QNH1017 hPa
Density Alt837 ft
Elevation118 ft
Report Wrong Elevation
Raw Report
METAR LFML 240300Z AUTO 12004KT CAVOK 20/16 Q1017 NOSIG=

Extra information for LFML:More info

Metar Taf Metar & Taf Last 4 Metars F.Rules Stats Wind Profile Meteogram Temp Stats Airport Information Weather charts Add Link Nearby VenuesMetar ALERT Operation Metar Decoded Social comments